Time;durP1;ratioP1;P1;durP2;ratioP2;P2;SDS_P1;SDS_P2;PMS_P1;PMS_P2;Temp;Humidity;BMP_temperature;BMP_pressure;BME280_temperature;BME280_humidity;BME280_pressure;Samples;Min_cycle;Max_cycle;Signal;HPM_P1;HPM_P2
2023/03/16 19:40:23;;;;;;;;;;;8.80;78.30;;;;;;4970653;28;19945;-68
2023/03/16 19:42:49;;;;;;;;;;;8.70;78.30;;;;;;4972542;28;20003;-69
2023/03/16 19:45:17;;;;;;;;;;;8.70;78.20;;;;;;4973657;28;19921;-69
2023/03/16 19:47:42;;;;;;;;;;;8.80;78.30;;;;;;4972265;28;19922;-69
2023/03/16 19:50:12;;;;;;;;;;;8.70;78.20;;;;;;4972121;28;19914;-69
2023/03/16 19:52:38;;;;;;;;;;;8.70;78.10;;;;;;4973986;28;19913;-69
2023/03/16 19:55:03;;;;;;;;;;;8.70;78.10;;;;;;4974146;28;19906;-69
2023/03/16 19:57:30;;;;;;;;;;;8.70;78.10;;;;;;4972373;28;19918;-69
2023/03/16 19:59:56;;;;;;;;;;;8.70;78.10;;;;;;4973537;28;19906;-69
2023/03/16 20:02:25;;;;;;;;;;;8.60;78.00;;;;;;4973581;28;19985;-70
2023/03/16 20:04:52;;;;;;;;;;;8.70;78.10;;;;;;4973791;28;19906;-69
2023/03/16 20:07:18;;;;;;;;;;;8.60;78.00;;;;;;4973617;28;19914;-69
2023/03/16 20:09:44;;;;;;;;;;;8.60;78.00;;;;;;4973422;28;19934;-69
2023/03/16 20:12:22;;;;;;;;;;;8.60;78.10;;;;;;4973478;28;20012;-69
2023/03/16 20:14:49;;;;;;;;;;;8.60;78.10;;;;;;4973176;28;19906;-69
2023/03/16 20:17:21;;;;;;;;;;;8.50;78.10;;;;;;4973115;28;20072;-69
2023/03/16 20:19:47;;;;;;;;;;;8.60;78.20;;;;;;4973032;28;20000;-69
2023/03/16 20:22:17;;;;;;;;;;;8.50;78.10;;;;;;4973303;28;20363;-69
2023/03/16 20:24:43;;;;;;;;;;;8.50;78.00;;;;;;4973353;28;19906;-70
2023/03/16 20:27:10;;;;;;;;;;;8.60;78.10;;;;;;4973259;28;19913;-68
2023/03/16 20:29:36;;;;;;;;;;;8.50;78.00;;;;;;4973310;28;19985;-69
2023/03/16 20:32:02;;;;;;;;;;;8.50;78.00;;;;;;4973327;28;19965;-69
2023/03/16 20:34:29;;;;;;;;;;;8.50;77.90;;;;;;4972842;28;19920;-68
2023/03/16 20:36:55;;;;;;;;;;;8.50;77.90;;;;;;4972935;28;19929;-69
2023/03/16 20:39:21;;;;;;;;;;;8.50;77.90;;;;;;4973068;28;19916;-69
2023/03/16 20:41:47;;;;;;;;;;;8.60;77.70;;;;;;4973119;28;19968;-69
2023/03/16 20:44:14;;;;;;;;;;;8.50;77.60;;;;;;4973265;28;19906;-69
2023/03/16 20:46:40;;;;;;;;;;;8.60;77.60;;;;;;4973411;28;19906;-69
2023/03/16 20:49:16;;;;;;;;;;;8.60;77.50;;;;;;4972887;28;20355;-69
2023/03/16 20:51:43;;;;;;;;;;;8.60;77.50;;;;;;4973113;28;19906;-69
2023/03/16 20:54:08;;;;;;;;;;;8.60;77.50;;;;;;4973298;28;19921;-69
2023/03/16 20:56:34;;;;;;;;;;;8.50;77.50;;;;;;4972740;28;19922;-68
2023/03/16 20:58:59;;;;;;;;;;;8.60;77.50;;;;;;4972830;28;19910;-68
2023/03/16 21:01:25;;;;;;;;;;;8.50;77.60;;;;;;4973096;28;19917;-68
2023/03/16 21:03:53;;;;;;;;;;;8.50;77.60;;;;;;4972897;28;20336;-69
2023/03/16 21:06:28;;;;;;;;;;;8.50;77.60;;;;;;4972785;28;19979;-69
2023/03/16 21:08:55;;;;;;;;;;;8.50;77.70;;;;;;4972726;28;19961;-69
2023/03/16 21:11:23;;;;;;;;;;;8.60;77.80;;;;;;4972757;28;19914;-69
2023/03/16 21:13:48;;;;;;;;;;;8.40;77.80;;;;;;4972971;28;20320;-69
2023/03/16 21:16:14;;;;;;;;;;;8.50;77.90;;;;;;4972665;28;19924;-69
2023/03/16 21:18:40;;;;;;;;;;;8.40;77.90;;;;;;4972707;28;21151;-70
2023/03/16 21:21:05;;;;;;;;;;;8.40;77.90;;;;;;4972736;28;19956;-68
2023/03/16 21:23:31;;;;;;;;;;;8.30;77.80;;;;;;4972749;28;19920;-69
2023/03/16 21:25:58;;;;;;;;;;;8.40;77.90;;;;;;4951429;28;19921;-69
2023/03/16 21:28:24;;;;;;;;;;;8.30;77.90;;;;;;4972580;28;19910;-69
2023/03/16 21:30:52;;;;;;;;;;;8.30;78.00;;;;;;4972599;28;19941;-69
2023/03/16 21:33:22;;;;;;;;;;;8.30;78.00;;;;;;4972603;28;19968;-69
2023/03/16 21:35:48;;;;;;;;;;;8.20;78.00;;;;;;4972594;28;19906;-69
2023/03/16 21:38:15;;;;;;;;;;;8.20;78.10;;;;;;4972351;28;19937;-69
2023/03/16 21:40:41;;;;;;;;;;;8.10;78.20;;;;;;4972459;28;19964;-69
2023/03/16 21:43:07;;;;;;;;;;;8.10;78.30;;;;;;4972387;28;19997;-69
2023/03/16 21:45:33;;;;;;;;;;;8.10;78.30;;;;;;4972368;28;19906;-69
2023/03/16 21:47:59;;;;;;;;;;;8.00;78.30;;;;;;4971363;28;20010;-69
2023/03/16 21:50:27;;;;;;;;;;;8.00;78.30;;;;;;4972301;28;19914;-69
2023/03/16 21:52:52;;;;;;;;;;;8.00;78.40;;;;;;4972773;28;19906;-69
2023/03/16 21:55:23;;;;;;;;;;;7.90;78.40;;;;;;4972336;28;19917;-69
2023/03/16 21:57:49;;;;;;;;;;;7.90;78.40;;;;;;4972237;28;19949;-68
2023/03/16 22:00:17;;;;;;;;;;;8.10;78.60;;;;;;4972279;28;19936;-69
2023/03/16 22:02:43;;;;;;;;;;;7.90;78.50;;;;;;4972124;28;19964;-68
2023/03/16 22:05:22;;;;;;;;;;;7.90;78.50;;;;;;4971972;28;19960;-69
2023/03/16 22:07:48;;;;;;;;;;;7.80;78.50;;;;;;4972092;28;19989;-68
2023/03/16 22:10:13;;;;;;;;;;;7.80;78.50;;;;;;4972082;28;19996;-68
2023/03/16 22:12:40;;;;;;;;;;;7.80;78.60;;;;;;4972212;28;19949;-69
2023/03/16 22:15:06;;;;;;;;;;;7.80;78.60;;;;;;4972146;28;19936;-69
2023/03/16 22:17:32;;;;;;;;;;;7.80;78.50;;;;;;4971877;28;19926;-68
2023/03/16 22:19:58;;;;;;;;;;;7.80;78.50;;;;;;4971884;28;19922;-68
2023/03/16 22:22:23;;;;;;;;;;;7.70;78.40;;;;;;4971832;28;20352;-70
2023/03/16 22:24:49;;;;;;;;;;;7.70;78.40;;;;;;4972028;28;19921;-70
2023/03/16 22:27:16;;;;;;;;;;;7.80;78.40;;;;;;4971856;28;19990;-70
2023/03/16 22:29:43;;;;;;;;;;;7.80;78.40;;;;;;4971918;28;19913;-69
2023/03/16 22:32:14;;;;;;;;;;;7.70;78.30;;;;;;4971904;28;19906;-71
2023/03/16 22:34:44;;;;;;;;;;;7.80;78.40;;;;;;4971893;28;20328;-70
2023/03/16 22:37:12;;;;;;;;;;;7.80;78.50;;;;;;4971741;28;20438;-70
2023/03/16 22:39:38;;;;;;;;;;;7.70;78.40;;;;;;4971922;28;19906;-70
2023/03/16 22:42:24;;;;;;;;;;;7.70;78.40;;;;;;4971749;28;19969;-70
2023/03/16 22:44:49;;;;;;;;;;;7.70;78.40;;;;;;4971541;28;19960;-70
2023/03/16 22:47:23;;;;;;;;;;;7.70;78.40;;;;;;4971439;28;19917;-70
2023/03/16 22:49:49;;;;;;;;;;;7.70;78.40;;;;;;4971432;28;20507;-70
2023/03/16 22:52:15;;;;;;;;;;;7.70;78.40;;;;;;4971519;28;19914;-70
2023/03/16 22:54:40;;;;;;;;;;;7.70;78.30;;;;;;4971653;28;20024;-70
2023/03/16 22:57:07;;;;;;;;;;;7.60;78.20;;;;;;4971418;28;19923;-70
2023/03/16 22:59:33;;;;;;;;;;;7.70;78.20;;;;;;4974485;28;20268;-70
2023/03/16 23:01:59;;;;;;;;;;;7.70;78.20;;;;;;4974868;28;20000;-69
2023/03/16 23:04:31;;;;;;;;;;;7.70;78.20;;;;;;4974810;28;20021;-70
2023/03/16 23:06:57;;;;;;;;;;;7.70;78.20;;;;;;4974801;28;19921;-70
2023/03/16 23:09:23;;;;;;;;;;;7.70;78.20;;;;;;4974597;28;19961;-70
2023/03/16 23:11:50;;;;;;;;;;;7.70;78.20;;;;;;4975067;28;19921;-70
2023/03/16 23:14:18;;;;;;;;;;;7.80;78.20;;;;;;4974986;28;20283;-70
2023/03/16 23:16:43;;;;;;;;;;;7.70;78.10;;;;;;4974262;28;19968;-67
2023/03/16 23:19:23;;;;;;;;;;;7.70;78.10;;;;;;4974323;28;20009;-70
2023/03/16 23:21:49;;;;;;;;;;;7.70;78.10;;;;;;4974233;28;20311;-70
2023/03/16 23:24:14;;;;;;;;;;;7.70;78.00;;;;;;4974374;28;20045;-69
2023/03/16 23:26:40;;;;;;;;;;;7.80;78.00;;;;;;4974190;28;19906;-68
2023/03/16 23:29:05;;;;;;;;;;;7.70;77.90;;;;;;4974378;28;19945;-68
2023/03/16 23:31:31;;;;;;;;;;;7.80;77.90;;;;;;4974158;28;20008;-68
2023/03/16 23:33:57;;;;;;;;;;;7.80;77.80;;;;;;4974216;28;19906;-68
2023/03/16 23:36:23;;;;;;;;;;;7.80;77.70;;;;;;4974129;28;19913;-68
2023/03/16 23:38:49;;;;;;;;;;;7.80;77.70;;;;;;4956634;28;19930;-68
2023/03/16 23:41:17;;;;;;;;;;;7.80;77.70;;;;;;4974216;28;19906;-68
2023/03/16 23:43:43;;;;;;;;;;;8.00;77.70;;;;;;4974477;28;19906;-67
2023/03/16 23:46:09;;;;;;;;;;;7.80;77.50;;;;;;4972987;28;19906;-68
2023/03/16 23:48:36;;;;;;;;;;;7.80;77.50;;;;;;4973180;28;19953;-67
2023/03/16 23:51:02;;;;;;;;;;;7.80;77.50;;;;;;4974498;28;19914;-68
2023/03/16 23:53:28;;;;;;;;;;;7.80;77.60;;;;;;4972851;28;19913;-68
2023/03/16 23:55:53;;;;;;;;;;;7.80;77.60;;;;;;4956555;28;19988;-68
2023/03/16 23:58:19;;;;;;;;;;;7.80;77.70;;;;;;4974305;28;19925;-68
